Time;durP1;ratioP1;P1;durP2;ratioP2;P2;SDS_P1;SDS_P2;PMS_P1;PMS_P2;Temp;Humidity;BMP_temperature;BMP_pressure;BME280_temperature;BME280_humidity;BME280_pressure;Samples;Min_cycle;Max_cycle;Signal;HPM_P1;HPM_P2
2022/05/23 00:01:34;;;;;;;1.45;1.20;;;20.20;54.70;;;;;;5073355;28;20052;-71
2022/05/23 00:04:00;;;;;;;1.70;1.10;;;20.20;54.70;;;;;;5073676;28;20052;-71
2022/05/23 00:06:27;;;;;;;1.98;1.20;;;21.00;58.80;;;;;;5073299;28;20052;-71
2022/05/23 00:08:54;;;;;;;1.42;1.08;;;20.20;54.70;;;;;;5079817;28;20060;-71
2022/05/23 00:11:21;;;;;;;2.10;1.30;;;20.20;54.70;;;;;;5072889;28;20045;-71
2022/05/23 00:13:47;;;;;;;1.63;1.20;;;19.00;57.80;;;;;;5073193;28;20541;-71
2022/05/23 00:16:18;;;;;;;2.47;1.10;;;20.10;54.70;;;;;;5090156;28;20148;-71
2022/05/23 00:18:46;;;;;;;1.48;1.20;;;19.90;57.10;;;;;;5092157;28;20052;-71
2022/05/23 00:21:12;;;;;;;1.52;1.20;;;20.10;54.70;;;;;;5092255;28;20060;-71
2022/05/23 00:23:39;;;;;;;2.17;1.40;;;20.10;54.70;;;;;;5092292;28;20052;-71
2022/05/23 00:26:06;;;;;;;1.60;1.20;;;20.10;54.80;;;;;;5093621;28;20048;-71
2022/05/23 00:28:32;;;;;;;1.83;1.30;;;20.00;57.00;;;;;;5091799;28;20058;-71
2022/05/23 00:30:59;;;;;;;2.10;1.20;;;20.00;54.70;;;;;;5090415;28;20060;-71
2022/05/23 00:36:12;;;;;;;1.05;0.98;;;20.00;59.00;;;;;;5105607;28;20048;-71
2022/05/23 00:38:39;;;;;;;1.92;1.33;;;20.30;57.40;;;;;;5071199;28;20056;-71
2022/05/23 00:43:53;;;;;;;1.42;1.00;;;19.90;57.90;;;;;;5105595;28;20052;-71
2022/05/23 00:46:20;;;;;;;1.88;1.20;;;20.00;55.40;;;;;;5071419;28;20056;-71
2022/05/23 00:48:47;;;;;;;1.52;1.10;;;20.50;57.90;;;;;;5081443;28;20054;-71
2022/05/23 00:51:16;;;;;;;2.10;1.38;;;20.20;58.30;;;;;;5092593;28;20485;-71
2022/05/23 00:53:45;;;;;;;1.90;1.10;;;20.00;54.80;;;;;;5092834;28;20593;-71
2022/05/23 00:56:12;;;;;;;1.42;1.17;;;20.00;54.80;;;;;;5108768;28;20056;-71
2022/05/23 00:58:41;;;;;;;1.40;1.10;;;20.60;57.90;;;;;;5092734;28;20043;-71
2022/05/23 01:01:11;;;;;;;3.33;1.15;;;19.90;54.80;;;;;;5092605;28;20409;-71
2022/05/23 01:03:38;;;;;;;1.65;1.30;;;19.90;54.80;;;;;;5091618;28;20101;-71
2022/05/23 01:06:05;;;;;;;1.20;1.10;;;19.40;59.10;;;;;;5089559;28;20048;-71
2022/05/23 01:08:34;;;;;;;1.20;1.10;;;19.20;57.10;;;;;;5092413;28;20039;-71
2022/05/23 01:11:00;;;;;;;1.52;1.17;;;19.90;54.90;;;;;;5092448;28;20052;-71
2022/05/23 01:13:27;;;;;;;2.92;1.13;;;21.00;60.00;;;;;;5091242;28;20054;-70
2022/05/23 01:15:54;;;;;;;1.63;1.23;;;19.80;54.80;;;;;;5091416;28;20131;-71
2022/05/23 01:18:20;;;;;;;2.25;1.20;;;19.80;54.80;;;;;;5091269;28;20052;-71
2022/05/23 01:20:47;;;;;;;2.65;1.50;;;19.80;59.00;;;;;;5092215;28;20083;-71
2022/05/23 01:23:17;;;;;;;2.40;1.20;;;19.80;54.80;;;;;;5073685;28;20049;-71
2022/05/23 01:25:46;;;;;;;1.58;1.30;;;19.80;54.80;;;;;;5070252;28;20508;-71
2022/05/23 01:28:13;;;;;;;2.08;1.30;;;19.60;58.40;;;;;;5070555;28;20504;-71
2022/05/23 01:30:40;;;;;;;1.70;1.20;;;19.80;54.90;;;;;;5070496;28;20064;-71
2022/05/23 01:33:07;;;;;;;1.90;1.40;;;19.80;54.90;;;;;;5071885;28;20048;-71
2022/05/23 01:35:34;;;;;;;1.50;1.05;;;19.80;59.80;;;;;;5070867;28;20052;-70
2022/05/23 01:38:00;;;;;;;2.28;1.30;;;19.80;54.90;;;;;;5074045;28;20696;-71
2022/05/23 01:40:27;;;;;;;1.95;1.20;;;19.80;54.90;;;;;;5088812;28;20058;-71
2022/05/23 01:42:55;;;;;;;3.70;1.60;;;19.60;58.80;;;;;;5092129;28;20051;-71
2022/05/23 01:45:23;;;;;;;2.65;1.30;;;19.50;58.70;;;;;;5090993;28;20058;-71
2022/05/23 01:47:50;;;;;;;2.33;1.20;;;19.80;54.90;;;;;;5090775;28;20074;-71
2022/05/23 01:50:17;;;;;;;1.30;1.20;;;19.70;54.80;;;;;;5090381;28;20056;-71
2022/05/23 01:52:43;;;;;;;2.05;1.40;;;19.70;54.80;;;;;;5124894;28;20489;-71
2022/05/23 01:55:10;;;;;;;1.40;1.20;;;19.70;54.80;;;;;;5089051;28;20055;-71
2022/05/23 01:57:37;;;;;;;1.77;1.25;;;19.70;54.80;;;;;;5090848;28;20507;-71
2022/05/23 02:02:51;;;;;;;1.83;1.20;;;19.70;54.80;;;;;;5125031;28;20512;-71
2022/05/23 02:05:18;;;;;;;1.65;1.27;;;19.70;54.90;;;;;;5090700;28;20056;-71
2022/05/23 02:07:45;;;;;;;1.50;1.10;;;19.70;54.80;;;;;;5091883;28;20044;-72
2022/05/23 02:10:14;;;;;;;1.50;1.10;;;19.50;58.90;;;;;;5092169;28;20048;-72
2022/05/23 02:12:42;;;;;;;1.65;1.13;;;19.60;54.80;;;;;;5090118;28;20103;-72
2022/05/23 02:15:10;;;;;;;1.75;1.23;;;19.90;59.80;;;;;;5090551;28;20055;-72
2022/05/23 02:17:37;;;;;;;2.63;1.30;;;19.60;54.80;;;;;;5091621;28;20052;-72
2022/05/23 02:20:04;;;;;;;1.27;1.05;;;19.60;54.80;;;;;;5091486;28;20140;-72
2022/05/23 02:22:31;;;;;;;1.50;1.13;;;19.60;54.80;;;;;;5090683;28;20060;-71
2022/05/23 02:24:58;;;;;;;1.80;1.10;;;19.60;54.80;;;;;;5091951;28;20404;-72
2022/05/23 02:27:25;;;;;;;1.67;1.30;;;19.60;54.80;;;;;;5090053;28;20055;-72
2022/05/23 02:29:51;;;;;;;1.50;1.30;;;19.60;54.80;;;;;;5122458;28;20062;-71
2022/05/23 02:32:19;;;;;;;1.48;1.13;;;19.60;54.90;;;;;;5090459;28;20052;-72
2022/05/23 02:34:46;;;;;;;1.63;1.15;;;19.60;54.90;;;;;;5124700;28;20087;-72
2022/05/23 02:37:13;;;;;;;1.45;1.15;;;19.50;54.80;;;;;;5092874;28;20477;-72
2022/05/23 02:39:39;;;;;;;1.23;1.10;;;19.50;54.80;;;;;;5095376;28;20052;-72
2022/05/23 02:42:07;;;;;;;1.52;1.30;;;19.50;54.80;;;;;;5094198;28;20056;-71
2022/05/23 02:44:34;;;;;;;1.20;1.08;;;19.50;55.00;;;;;;5095327;28;20048;-72
2022/05/23 02:47:01;;;;;;;1.80;1.30;;;19.50;54.80;;;;;;5093468;28;20048;-72
2022/05/23 02:49:29;;;;;;;1.77;1.23;;;19.60;59.80;;;;;;5094001;28;20062;-72
2022/05/23 02:51:56;;;;;;;1.27;1.15;;;19.50;59.70;;;;;;5095076;28;20488;-72
2022/05/23 02:54:22;;;;;;;1.42;1.13;;;19.50;54.90;;;;;;5094848;28;20412;-72
2022/05/23 02:56:49;;;;;;;1.50;1.10;;;19.50;54.90;;;;;;5093759;28;20058;-72
2022/05/23 02:59:16;;;;;;;1.80;1.30;;;19.50;60.00;;;;;;5094952;28;20054;-72
2022/05/23 03:04:23;;;;;;;1.45;1.30;;;19.50;54.80;;;;;;5090870;28;20052;-72
2022/05/23 03:06:51;;;;;;;1.50;1.20;;;19.40;59.20;;;;;;5093645;28;20056;-72
2022/05/23 03:09:18;;;;;;;1.48;1.08;;;19.40;54.80;;;;;;5093222;28;20052;-72
2022/05/23 03:11:45;;;;;;;1.30;1.10;;;19.40;54.80;;;;;;5094849;28;20048;-72
2022/05/23 03:14:12;;;;;;;1.85;1.40;;;19.20;59.20;;;;;;5093694;28;20063;-72
2022/05/23 03:16:38;;;;;;;1.55;1.10;;;19.40;54.80;;;;;;5093685;28;20511;-71
2022/05/23 03:19:05;;;;;;;2.58;1.40;;;19.40;55.40;;;;;;5094336;28;20051;-71
2022/05/23 03:27:01;;;;;;;2.47;1.20;;;19.40;54.90;;;;;;5127528;27;20485;-72
2022/05/23 03:29:29;;;;;;;1.52;1.23;;;19.40;58.70;;;;;;5094102;28;20058;-72
2022/05/23 03:31:56;;;;;;;1.25;1.15;;;19.30;54.80;;;;;;5127377;27;20393;-72
2022/05/23 03:34:23;;;;;;;1.88;1.10;;;19.40;54.90;;;;;;5127295;27;20062;-72
2022/05/23 03:36:49;;;;;;;2.55;1.27;;;19.30;54.80;;;;;;5091561;28;20114;-72
2022/05/23 03:39:17;;;;;;;1.45;1.20;;;19.30;54.80;;;;;;5094096;28;20176;-72
2022/05/23 03:41:44;;;;;;;2.33;1.20;;;19.30;54.90;;;;;;5094232;28;20062;-72
2022/05/23 03:44:11;;;;;;;1.88;1.33;;;19.30;58.90;;;;;;5093210;28;20051;-72
2022/05/23 03:46:38;;;;;;;1.10;1.00;;;19.30;54.90;;;;;;5092751;28;20381;-71
2022/05/23 03:49:06;;;;;;;2.55;1.20;;;19.30;54.90;;;;;;5093673;28;20056;-72
2022/05/23 03:51:33;;;;;;;1.52;1.30;;;19.30;54.90;;;;;;5092517;28;20135;-72
2022/05/23 03:53:59;;;;;;;1.35;1.20;;;19.30;54.90;;;;;;5091351;28;20048;-71
2022/05/23 03:56:28;;;;;;;1.60;1.20;;;19.30;54.90;;;;;;5093946;28;20048;-72
2022/05/23 03:58:55;;;;;;;1.60;1.13;;;19.30;54.90;;;;;;5092574;28;20056;-71
2022/05/23 04:01:24;;;;;;;1.83;1.30;;;19.30;54.90;;;;;;5092497;28;20063;-72
2022/05/23 04:03:51;;;;;;;1.38;1.10;;;19.10;58.90;;;;;;5092475;28;20060;-72
2022/05/23 04:06:18;;;;;;;1.40;1.17;;;19.30;55.00;;;;;;5093830;28;20044;-71
2022/05/23 04:08:45;;;;;;;1.45;1.20;;;19.20;58.00;;;;;;5092355;28;20052;-72
2022/05/23 04:11:12;;;;;;;2.15;1.35;;;19.30;55.00;;;;;;5090269;28;20054;-72
2022/05/23 04:13:40;;;;;;;1.20;1.10;;;19.30;55.00;;;;;;5092162;28;20382;-72
2022/05/23 04:16:07;;;;;;;1.30;1.10;;;19.20;54.90;;;;;;5092524;28;20068;-72
2022/05/23 04:18:36;;;;;;;1.42;1.10;;;19.50;58.10;;;;;;5092410;28;20132;-72
2022/05/23 04:21:03;;;;;;;1.20;1.10;;;19.20;55.00;;;;;;5093212;28;20044;-72
2022/05/23 04:23:30;;;;;;;1.23;1.10;;;19.20;60.60;;;;;;5092262;28;20051;-72
2022/05/23 04:26:00;;;;;;;1.45;1.20;;;19.20;55.00;;;;;;5093293;28;20511;-70
2022/05/23 04:28:27;;;;;;;1.70;1.20;;;19.20;55.00;;;;;;5124650;27;20070;-71
2022/05/23 04:30:55;;;;;;;1.70;1.20;;;19.30;59.00;;;;;;5125839;27;20054;-70
2022/05/23 04:36:06;;;;;;;1.92;1.27;;;18.90;58.70;;;;;;5125853;27;20044;-71
2022/05/23 04:38:33;;;;;;;1.45;1.08;;;18.30;57.40;;;;;;5093032;28;20052;-71
2022/05/23 04:41:00;;;;;;;1.75;1.08;;;19.20;54.90;;;;;;5091713;28;20056;-71
2022/05/23 04:43:27;;;;;;;1.45;1.20;;;19.20;54.90;;;;;;5091728;28;20059;-72
2022/05/23 04:45:55;;;;;;;1.85;1.20;;;19.20;54.90;;;;;;5124217;27;20062;-71
2022/05/23 04:51:05;;;;;;;1.35;1.10;;;19.50;55.00;;;;;;5105381;28;20079;-71
2022/05/23 04:53:32;;;;;;;1.83;1.20;;;18.10;58.10;;;;;;5072476;28;20044;-71
2022/05/23 04:56:00;;;;;;;1.45;1.20;;;19.30;54.80;;;;;;5071350;28;20056;-70
2022/05/23 04:58:27;;;;;;;1.52;1.10;;;18.50;58.50;;;;;;5071056;28;20457;-71
2022/05/23 05:00:56;;;;;;;1.80;1.30;;;19.30;54.80;;;;;;5070382;28;20056;-71
2022/05/23 05:03:23;;;;;;;1.60;1.35;;;19.30;59.80;;;;;;5090936;28;20055;-71
2022/05/23 05:05:49;;;;;;;2.00;1.20;;;19.30;54.80;;;;;;5125806;27;20131;-71
2022/05/23 05:08:16;;;;;;;1.45;1.00;;;19.30;54.80;;;;;;5091244;28;20052;-71
2022/05/23 05:10:44;;;;;;;3.70;1.25;;;18.50;58.60;;;;;;5092227;28;20048;-71
2022/05/23 05:13:11;;;;;;;2.13;1.20;;;18.40;59.30;;;;;;5091509;28;20052;-71
2022/05/23 05:15:38;;;;;;;1.80;1.20;;;19.30;54.80;;;;;;5092393;28;20048;-71
2022/05/23 05:18:06;;;;;;;1.98;1.33;;;19.30;54.80;;;;;;5090580;28;20052;-71
2022/05/23 05:20:34;;;;;;;2.05;1.20;;;19.10;59.30;;;;;;5090932;28;20055;-70
2022/05/23 05:23:01;;;;;;;1.25;1.10;;;19.30;54.70;;;;;;5091193;28;20113;-70
2022/05/23 05:25:27;;;;;;;1.63;1.17;;;19.30;54.70;;;;;;5091096;28;20659;-71
2022/05/23 05:27:54;;;;;;;2.70;1.30;;;19.30;54.70;;;;;;5091043;28;20052;-71
2022/05/23 05:30:21;;;;;;;1.40;1.30;;;19.60;58.70;;;;;;5090610;28;20048;-71
2022/05/23 05:32:50;;;;;;;1.92;1.10;;;19.30;54.70;;;;;;5091873;28;20058;-71
2022/05/23 05:35:20;;;;;;;1.63;1.20;;;19.30;54.70;;;;;;5089327;28;20489;-71
2022/05/23 05:37:50;;;;;;;1.17;1.08;;;19.40;54.70;;;;;;5091208;28;20485;-71
2022/05/23 05:40:20;;;;;;;1.20;1.08;;;19.40;54.70;;;;;;5090421;28;20059;-71
2022/05/23 05:42:49;;;;;;;1.10;1.00;;;19.40;54.60;;;;;;5124642;27;20056;-71
2022/05/23 05:45:17;;;;;;;6.75;1.40;;;19.40;54.60;;;;;;5090963;28;20416;-70
2022/05/23 05:47:45;;;;;;;2.58;1.30;;;19.50;54.60;;;;;;5090776;28;20056;-70
2022/05/23 05:50:15;;;;;;;1.30;1.15;;;19.50;54.60;;;;;;5090246;28;20048;-71
2022/05/23 05:52:45;;;;;;;2.10;1.30;;;19.80;58.90;;;;;;5088785;28;20052;-71
2022/05/23 05:55:12;;;;;;;1.35;1.10;;;19.60;54.40;;;;;;5090834;28;20055;-71
2022/05/23 05:57:38;;;;;;;1.50;1.00;;;19.70;54.40;;;;;;5090748;28;20055;-72
2022/05/23 06:00:07;;;;;;;2.45;1.40;;;19.70;54.30;;;;;;5089807;28;20048;-70
2022/05/23 06:02:34;;;;;;;0.98;0.95;;;19.80;54.20;;;;;;5070326;28;20080;-71
2022/05/23 06:05:00;;;;;;;1.92;1.10;;;19.90;54.20;;;;;;5070455;28;20052;-70
2022/05/23 06:13:00;;;;;;;1.58;1.17;;;20.00;54.10;;;;;;5095771;28;20048;-71
2022/05/23 06:15:27;;;;;;;2.42;1.30;;;19.00;57.80;;;;;;5094416;28;20058;-71
2022/05/23 06:17:54;;;;;;;1.77;1.08;;;20.00;54.00;;;;;;5094719;28;20056;-72
2022/05/23 06:20:22;;;;;;;2.53;1.20;;;20.10;53.90;;;;;;5095119;28;20527;-72
2022/05/23 06:22:50;;;;;;;1.13;1.02;;;20.10;53.90;;;;;;5094649;28;20087;-71
2022/05/23 06:25:18;;;;;;;2.15;1.20;;;20.10;53.80;;;;;;5090728;28;20067;-71
2022/05/23 06:27:45;;;;;;;1.17;1.08;;;20.40;58.10;;;;;;5108260;28;20493;-71
2022/05/23 06:30:13;;;;;;;1.55;1.05;;;20.30;53.70;;;;;;5073747;28;20052;-72
2022/05/23 06:32:39;;;;;;;1.63;1.30;;;20.40;53.60;;;;;;5108106;28;20063;-71
2022/05/23 06:35:07;;;;;;;1.20;1.10;;;20.50;53.40;;;;;;5075319;28;20059;-71
2022/05/23 06:37:35;;;;;;;3.90;1.30;;;20.70;53.40;;;;;;5107974;28;20064;-71
2022/05/23 06:40:02;;;;;;;1.95;1.40;;;20.70;53.10;;;;;;5073792;28;20048;-69
2022/05/23 06:42:31;;;;;;;1.90;1.30;;;20.90;53.00;;;;;;5075114;28;20058;-71
2022/05/23 06:44:57;;;;;;;2.72;1.35;;;21.10;58.00;;;;;;5073993;28;20060;-71
2022/05/23 06:47:24;;;;;;;2.72;1.25;;;21.00;52.70;;;;;;5073687;28;20429;-71
2022/05/23 06:49:51;;;;;;;3.90;1.45;;;21.10;52.80;;;;;;5074823;28;20048;-72
2022/05/23 06:52:18;;;;;;;4.55;1.40;;;21.20;57.60;;;;;;5074850;28;20044;-72
2022/05/23 06:54:45;;;;;;;3.60;1.50;;;21.20;52.50;;;;;;5074744;28;20080;-72
2022/05/23 06:57:12;;;;;;;2.22;1.30;;;21.50;56.80;;;;;;5080610;28;20050;-71
2022/05/23 06:59:40;;;;;;;3.45;1.45;;;21.30;52.30;;;;;;5093602;28;20526;-71
2022/05/23 07:02:07;;;;;;;3.53;1.60;;;21.40;52.30;;;;;;5093871;28;20055;-72
2022/05/23 07:12:45;;;;;;;4.25;1.33;;;21.60;51.90;;;;;;5127989;27;20122;-71
2022/05/23 07:15:14;;;;;;;5.13;1.70;;;21.60;56.40;;;;;;5091958;28;20058;-71
2022/05/23 07:17:40;;;;;;;3.80;1.75;;;21.80;51.80;;;;;;5094594;28;20048;-71
2022/05/23 07:20:08;;;;;;;1.90;1.35;;;21.80;51.70;;;;;;5094422;28;20056;-72
2022/05/23 07:22:35;;;;;;;3.90;1.40;;;21.90;51.60;;;;;;5092846;28;20056;-70
2022/05/23 07:25:02;;;;;;;3.03;1.33;;;22.00;51.60;;;;;;5093051;28;20070;-71
2022/05/23 07:27:29;;;;;;;2.88;1.40;;;22.00;51.50;;;;;;5094438;28;20507;-71
2022/05/23 07:29:56;;;;;;;3.20;1.30;;;22.10;51.50;;;;;;5091912;28;20058;-71
2022/05/23 07:32:24;;;;;;;4.97;1.30;;;23.30;56.80;;;;;;5073014;28;20060;-71
2022/05/23 07:34:50;;;;;;;2.45;1.30;;;21.70;55.50;;;;;;5073207;28;20408;-71
2022/05/23 07:37:17;;;;;;;1.90;1.15;;;22.30;51.40;;;;;;5072602;28;20080;-70
2022/05/23 07:39:44;;;;;;;4.38;1.50;;;22.30;51.30;;;;;;5073722;28;20051;-72
2022/05/23 07:42:11;;;;;;;4.78;1.50;;;22.40;51.30;;;;;;5072977;28;20052;-71
2022/05/23 07:44:38;;;;;;;1.73;1.33;;;22.50;51.30;;;;;;5072902;28;20048;-71
2022/05/23 07:47:06;;;;;;;5.32;1.63;;;22.50;51.30;;;;;;5078631;28;20056;-72
2022/05/23 07:49:34;;;;;;;3.47;1.50;;;22.50;51.20;;;;;;5126634;27;20455;-71
2022/05/23 07:52:02;;;;;;;3.97;1.50;;;22.40;55.20;;;;;;5092551;28;20055;-70
2022/05/23 08:02:42;;;;;;;2.30;1.45;;;22.50;51.30;;;;;;5127153;27;20138;-70
2022/05/23 08:05:11;;;;;;;2.30;1.50;;;22.50;51.40;;;;;;5074298;28;20705;-70
2022/05/23 08:07:37;;;;;;;3.35;1.30;;;22.50;51.50;;;;;;5072571;28;20057;-70
2022/05/23 08:10:05;;;;;;;2.40;1.35;;;22.50;51.50;;;;;;5071632;28;20055;-70
2022/05/23 08:12:32;;;;;;;3.40;1.30;;;22.50;51.50;;;;;;5106376;28;20063;-70
2022/05/23 08:14:59;;;;;;;3.60;1.35;;;22.50;51.50;;;;;;5072174;28;20062;-70
2022/05/23 08:17:25;;;;;;;2.75;1.50;;;22.60;56.10;;;;;;5085052;28;20051;-70
2022/05/23 08:19:52;;;;;;;3.40;1.35;;;22.60;51.70;;;;;;5071812;28;20401;-71
2022/05/23 08:22:20;;;;;;;2.58;1.42;;;22.60;51.70;;;;;;5083389;28;20097;-71
2022/05/23 08:24:47;;;;;;;3.28;1.60;;;22.60;51.80;;;;;;5085421;28;20420;-71
2022/05/23 08:27:14;;;;;;;3.00;1.42;;;22.80;56.50;;;;;;5071891;28;20058;-69
2022/05/23 08:29:41;;;;;;;6.60;1.80;;;22.60;51.70;;;;;;5081107;28;20044;-72
2022/05/23 08:32:11;;;;;;;3.10;1.83;;;22.70;51.80;;;;;;5092833;28;20048;-71
2022/05/23 08:34:38;;;;;;;2.47;1.40;;;23.00;57.40;;;;;;5088058;28;20080;-73
2022/05/23 08:37:06;;;;;;;3.88;1.50;;;22.70;56.50;;;;;;5091002;28;20046;-73
2022/05/23 08:39:34;;;;;;;3.13;1.67;;;22.80;51.90;;;;;;5080657;28;20055;-73
2022/05/23 08:42:05;;;;;;;2.47;1.45;;;22.80;51.90;;;;;;5092094;28;20477;-73
2022/05/23 08:44:40;;;;;;;5.22;1.90;;;22.80;51.90;;;;;;5093123;28;20089;-73
2022/05/23 08:47:08;;;;;;;;;;;22.90;52.00;;;;;;5093449;28;20064;-73
2022/05/23 08:49:41;;;;;;;7.70;2.50;;;22.80;52.20;;;;;;5091575;28;20401;-73
2022/05/23 09:04:32;;;;;;;15.75;4.13;;;23.90;49.30;;;;;;5127540;27;20390;-71
2022/05/23 09:06:59;;;;;;;15.30;3.53;;;23.50;50.70;;;;;;5126710;28;20138;-71
2022/05/23 09:09:29;;;;;;;13.98;4.05;;;23.20;55.00;;;;;;5127087;28;20130;-72
2022/05/23 09:11:58;;;;;;;13.95;3.78;;;23.30;51.20;;;;;;5127210;27;20048;-71
2022/05/23 09:14:25;;;;;;;18.58;3.50;;;23.30;56.00;;;;;;5105106;28;20048;-71
2022/05/23 09:16:52;;;;;;;10.40;3.40;;;23.20;55.60;;;;;;5106366;28;20142;-71
2022/05/23 09:19:21;;;;;;;17.40;3.70;;;23.30;51.40;;;;;;5106344;28;20058;-71
2022/05/23 09:24:38;;;;;;;13.93;3.60;;;23.30;51.50;;;;;;5105862;28;20401;-71
2022/05/23 09:27:06;;;;;;;20.38;3.95;;;23.30;51.50;;;;;;5106232;27;20462;-71
2022/05/23 09:29:33;;;;;;;10.15;3.00;;;23.50;55.00;;;;;;5126520;28;20051;-72
2022/05/23 09:32:01;;;;;;;10.95;3.15;;;23.10;55.70;;;;;;5126281;28;20058;-71
2022/05/23 09:34:29;;;;;;;7.65;3.05;;;23.30;51.60;;;;;;5126040;28;20130;-71
2022/05/23 09:36:57;;;;;;;9.88;3.30;;;23.30;51.60;;;;;;5126448;28;20063;-71
2022/05/23 09:39:25;;;;;;;9.27;3.17;;;22.20;54.20;;;;;;5126358;28;20059;-71
2022/05/23 09:47:49;;;;;;;8.57;2.88;;;23.20;51.70;;;;;;5105856;28;20052;-72
2022/05/23 09:50:30;;;;;;;8.70;3.17;;;23.20;51.70;;;;;;5105743;28;20048;-72
2022/05/23 09:52:59;;;;;;;7.45;2.90;;;23.00;54.80;;;;;;5104896;28;20512;-72
2022/05/23 09:55:28;;;;;;;8.10;2.78;;;23.20;51.70;;;;;;5108378;28;20050;-71
2022/05/23 09:57:56;;;;;;;5.53;2.55;;;23.20;51.70;;;;;;5125906;28;20055;-72
2022/05/23 10:00:32;;;;;;;9.23;2.50;;;23.20;51.70;;;;;;5126021;28;20051;-72
2022/05/23 10:03:01;;;;;;;6.18;2.60;;;23.10;55.30;;;;;;5109312;27;20452;-70
2022/05/23 10:05:30;;;;;;;6.55;2.58;;;23.20;51.90;;;;;;5091106;28;20043;-71
2022/05/23 10:08:00;;;;;;;7.72;2.38;;;23.20;51.90;;;;;;5092912;28;20048;-71
2022/05/23 10:10:28;;;;;;;7.43;2.40;;;23.20;51.90;;;;;;5101376;28;20096;-71
2022/05/23 10:13:15;;;;;;;5.03;2.30;;;23.10;51.90;;;;;;5111593;28;20051;-71
2022/05/23 10:15:43;;;;;;;4.47;2.20;;;23.10;51.90;;;;;;5112878;28;20078;-70
2022/05/23 10:18:11;;;;;;;4.95;2.40;;;23.10;51.90;;;;;;5112056;28;20118;-70
2022/05/23 10:20:39;;;;;;;4.78;2.22;;;23.10;52.00;;;;;;5111529;28;20055;-71
2022/05/23 10:23:08;;;;;;;4.95;2.50;;;23.20;53.40;;;;;;5112529;28;20053;-70
2022/05/23 10:25:38;;;;;;;4.18;2.13;;;23.10;52.10;;;;;;5096040;28;20059;-69
2022/05/23 10:28:08;;;;;;;4.38;2.08;;;23.00;55.40;;;;;;5091283;28;20067;-71
2022/05/23 10:30:35;;;;;;;6.63;2.30;;;23.10;52.10;;;;;;5091446;28;20058;-70
2022/05/23 10:33:05;;;;;;;4.18;1.98;;;23.30;55.60;;;;;;5090793;28;20052;-69
2022/05/23 10:35:36;;;;;;;6.35;2.30;;;22.90;55.00;;;;;;5091373;28;20058;-69
2022/05/23 10:43:32;;;;;;;4.93;2.00;;;23.10;52.10;;;;;;5091711;28;20040;-71
2022/05/23 10:45:59;;;;;;;4.60;1.90;;;23.10;52.10;;;;;;5091188;28;20091;-72
2022/05/23 10:48:43;;;;;;;4.35;2.10;;;23.20;52.10;;;;;;5092071;28;20040;-71
2022/05/23 10:51:15;;;;;;;3.15;1.80;;;23.20;52.10;;;;;;5092038;28;20051;-69
2022/05/23 10:53:49;;;;;;;7.82;2.03;;;23.20;52.10;;;;;;5100633;28;20044;-69
2022/05/23 10:56:21;;;;;;;3.67;1.92;;;23.20;52.10;;;;;;5111483;28;20054;-71
2022/05/23 10:58:52;;;;;;;4.05;1.95;;;23.20;52.10;;;;;;5110650;28;20066;-70
2022/05/23 11:01:27;;;;;;;6.18;2.20;;;23.40;55.00;;;;;;5110750;28;20406;-70
2022/05/23 11:03:56;;;;;;;5.43;1.92;;;23.20;52.10;;;;;;5110654;28;20509;-69
2022/05/23 11:06:26;;;;;;;4.28;2.20;;;23.20;52.10;;;;;;5111180;28;20613;-70
2022/05/23 11:09:00;;;;;;;3.85;1.83;;;23.90;54.90;;;;;;5110179;28;20493;-70
2022/05/23 11:11:36;;;;;;;5.07;2.00;;;23.20;52.10;;;;;;5111101;28;20063;-71
2022/05/23 11:14:09;;;;;;;4.75;1.80;;;22.90;55.60;;;;;;5110375;28;20485;-71
2022/05/23 11:16:38;;;;;;;2.97;1.83;;;23.20;52.10;;;;;;5109706;28;20056;-71
2022/05/23 11:19:14;;;;;;;3.35;1.90;;;23.70;55.80;;;;;;5110684;28;20480;-72
2022/05/23 11:21:44;;;;;;;3.75;1.80;;;23.20;52.20;;;;;;5106040;28;20055;-71
2022/05/23 11:24:12;;;;;;;3.85;1.95;;;23.20;52.20;;;;;;5073226;28;20067;-71
2022/05/23 11:26:42;;;;;;;2.60;1.58;;;23.90;56.30;;;;;;5090253;28;20155;-72
2022/05/23 11:34:39;;;;;;;3.90;1.83;;;23.30;52.20;;;;;;5088269;28;20055;-71
2022/05/23 11:37:42;;;;;;;2.33;1.70;;;23.30;52.20;;;;;;5089515;28;20131;-70
2022/05/23 11:39:59;;;;;;;3.95;1.73;;;23.30;52.10;;;;;;5091089;28;20048;-70
2022/05/23 11:42:31;;;;;;;3.83;1.92;;;23.30;52.10;;;;;;5089732;28;20066;-70
2022/05/23 11:45:56;;;;;;;3.15;1.83;;;23.30;52.10;;;;;;5089632;28;20139;-70
2022/05/23 11:47:48;;;;;;;2.50;1.70;;;23.30;52.10;;;;;;5106763;28;20059;-70
2022/05/23 11:50:21;;;;;;;3.28;1.70;;;23.30;52.10;;;;;;5109981;28;20082;-69
2022/05/23 11:52:49;;;;;;;2.58;1.60;;;23.30;52.10;;;;;;5109533;28;20043;-70
2022/05/23 11:55:49;;;;;;;2.35;1.63;;;23.30;52.10;;;;;;5110011;28;20048;-69
2022/05/23 11:58:22;;;;;;;2.42;1.67;;;23.40;52.10;;;;;;5109912;28;20059;-69
2022/05/23 12:01:02;;;;;;;2.83;1.85;;;23.70;55.40;;;;;;5109519;28;20676;-70
2022/05/23 12:03:28;;;;;;;3.38;1.80;;;23.50;55.20;;;;;;5089317;28;20044;-70
2022/05/23 12:06:14;;;;;;;3.08;1.77;;;23.40;52.20;;;;;;5089700;28;20048;-70
2022/05/23 12:08:40;;;;;;;2.70;1.52;;;23.30;52.10;;;;;;5089357;28;20058;-70
2022/05/23 12:11:21;;;;;;;2.80;1.60;;;23.30;52.10;;;;;;5089331;28;20056;-70
2022/05/23 12:13:51;;;;;;;2.13;1.55;;;23.30;52.70;;;;;;5089975;28;20474;-70
2022/05/23 12:16:27;;;;;;;2.85;1.60;;;23.30;52.20;;;;;;5103865;28;20118;-71
2022/05/23 12:19:28;;;;;;;3.45;1.90;;;23.40;56.10;;;;;;5109616;28;20060;-72
2022/05/23 12:21:55;;;;;;;4.13;1.60;;;23.30;52.20;;;;;;5105849;28;20109;-70
2022/05/23 12:24:27;;;;;;;3.33;1.55;;;23.40;56.10;;;;;;5109226;28;20051;-71
2022/05/23 12:26:56;;;;;;;2.30;1.63;;;23.20;56.20;;;;;;5109290;28;20059;-69
2022/05/23 12:29:30;;;;;;;3.58;1.67;;;23.30;52.20;;;;;;5105478;28;20086;-69
2022/05/23 12:32:12;;;;;;;;;;;23.30;52.20;;;;;;5089816;28;20109;-71
2022/05/23 12:34:41;;;;;;;2.35;1.70;;;23.30;52.30;;;;;;5086122;28;19926;-69
2022/05/23 12:37:13;;;;;;;3.15;1.40;;;23.30;52.20;;;;;;5088921;28;20058;-70
2022/05/23 12:39:52;;;;;;;2.78;2.05;;;23.30;52.20;;;;;;5089253;28;20056;-71
2022/05/23 12:42:26;;;;;;;2.90;1.73;;;23.30;52.20;;;;;;5089030;28;20108;-70
2022/05/23 12:45:18;;;;;;;2.60;1.40;;;23.30;55.10;;;;;;5102452;28;20467;-70
2022/05/23 12:48:02;;;;;;;4.88;1.70;;;23.30;52.20;;;;;;5110076;28;21080;-70
2022/05/23 12:50:34;;;;;;;2.25;1.40;;;23.30;52.30;;;;;;5108901;28;20051;-71
2022/05/23 12:53:20;;;;;;;2.50;1.60;;;23.20;56.10;;;;;;5108676;28;20578;-71
2022/05/23 12:55:55;;;;;;;4.40;1.60;;;23.30;52.30;;;;;;5109213;28;20059;-70
2022/05/23 12:58:31;;;;;;;2.67;1.73;;;23.30;52.30;;;;;;5102523;28;20137;-69
2022/05/23 13:01:00;;;;;;;3.55;1.55;;;23.30;55.90;;;;;;5088788;28;20052;-69
2022/05/23 13:03:30;;;;;;;3.28;1.60;;;23.30;52.40;;;;;;5070997;28;20051;-71
2022/05/23 13:05:58;;;;;;;3.17;1.85;;;23.20;55.30;;;;;;5088768;28;20048;-70
2022/05/23 13:08:27;;;;;;;3.08;1.60;;;23.30;55.70;;;;;;5088882;28;20066;-70
2022/05/23 13:10:59;;;;;;;2.85;1.60;;;23.30;52.50;;;;;;5088855;28;20101;-70
2022/05/23 13:13:28;;;;;;;2.15;1.50;;;23.20;56.60;;;;;;5099052;28;20051;-70
2022/05/23 13:15:55;;;;;;;3.85;1.52;;;23.40;55.80;;;;;;5109041;28;20062;-70
2022/05/23 13:23:53;;;;;;;4.22;1.70;;;23.20;52.50;;;;;;5108661;28;20040;-70
2022/05/23 13:26:20;;;;;;;1.90;1.48;;;23.20;52.50;;;;;;5107739;28;20059;-70
2022/05/23 13:28:49;;;;;;;1.77;1.40;;;23.20;52.50;;;;;;5088587;28;20428;-70
2022/05/23 13:31:27;;;;;;;2.17;1.50;;;23.20;52.50;;;;;;5089836;28;20394;-70
2022/05/23 13:33:57;;;;;;;2.30;1.48;;;23.10;55.50;;;;;;5089403;28;20040;-70
2022/05/23 13:36:24;;;;;;;2.35;1.60;;;23.20;52.60;;;;;;5089781;28;20056;-70
2022/05/23 13:39:04;;;;;;;2.50;1.58;;;24.10;55.80;;;;;;5090223;28;20077;-70
2022/05/23 13:41:31;;;;;;;2.65;1.70;;;23.10;52.60;;;;;;5099869;28;20048;-70
2022/05/23 13:43:58;;;;;;;2.00;1.25;;;23.10;52.60;;;;;;5092447;28;20459;-71
2022/05/23 13:46:27;;;;;;;2.63;1.60;;;23.10;52.60;;;;;;5094133;28;20117;-70
2022/05/23 13:48:56;;;;;;;2.00;1.50;;;23.10;52.70;;;;;;5112731;28;20706;-72
2022/05/23 13:51:25;;;;;;;3.20;1.50;;;23.10;52.70;;;;;;5112315;28;20056;-70
2022/05/23 13:53:53;;;;;;;1.73;1.45;;;23.10;52.80;;;;;;5111881;28;20040;-69
2022/05/23 13:56:20;;;;;;;2.88;1.70;;;22.90;55.90;;;;;;5111480;28;20098;-70
2022/05/23 13:58:48;;;;;;;2.97;1.60;;;23.10;52.80;;;;;;5112515;28;20101;-71
2022/05/23 14:01:21;;;;;;;2.63;1.73;;;23.10;55.90;;;;;;5111473;28;20057;-70
2022/05/23 14:03:53;;;;;;;3.38;1.30;;;24.20;56.30;;;;;;5111247;28;20070;-69
2022/05/23 14:06:22;;;;;;;2.17;1.33;;;23.00;52.90;;;;;;5112455;28;20055;-71
2022/05/23 14:08:52;;;;;;;1.90;1.40;;;22.80;56.90;;;;;;5111923;28;20051;-70
2022/05/23 14:11:20;;;;;;;2.65;1.73;;;23.10;52.90;;;;;;5112742;28;20062;-69
2022/05/23 14:13:47;;;;;;;2.92;1.48;;;23.20;56.60;;;;;;5109712;28;20070;-69
2022/05/23 14:16:14;;;;;;;3.60;1.40;;;23.00;53.00;;;;;;5091752;28;20063;-69
2022/05/23 14:18:41;;;;;;;1.90;1.45;;;23.00;53.00;;;;;;5091398;28;20060;-71